createdAt,value
2019-05-03T00:01:42.004Z,8.56
2019-05-03T00:04:12.060Z,8.52
2019-05-03T00:06:40.328Z,8.54
2019-05-03T00:09:11.896Z,8.47
2019-05-03T00:11:42.113Z,8.47
2019-05-03T00:14:12.330Z,8.44
2019-05-03T00:16:42.074Z,8.45
2019-05-03T00:19:10.337Z,8.40
2019-05-03T00:21:38.714Z,8.40
2019-05-03T00:24:06.976Z,8.30
2019-05-03T00:26:35.283Z,8.31
2019-05-03T00:29:03.536Z,8.33
2019-05-03T00:31:31.967Z,8.32
2019-05-03T00:34:02.234Z,8.28
2019-05-03T00:36:32.849Z,8.31
2019-05-03T00:39:03.120Z,8.25
2019-05-03T00:41:32.040Z,8.20
2019-05-03T00:44:02.107Z,8.17
2019-05-03T00:46:30.346Z,8.17
2019-05-03T00:48:58.635Z,8.27
2019-05-03T00:51:26.882Z,8.15
2019-05-03T00:53:55.172Z,8.16
2019-05-03T00:56:23.431Z,8.17
2019-05-03T00:58:53.381Z,8.14
2019-05-03T01:01:22.545Z,8.14
2019-05-03T01:03:52.721Z,8.16
2019-05-03T01:06:22.380Z,8.15
2019-05-03T01:08:52.278Z,8.07
2019-05-03T01:11:22.251Z,8.01
2019-05-03T01:13:52.159Z,7.99
2019-05-03T01:16:22.740Z,8.11
2019-05-03T01:18:52.318Z,8.16
2019-05-03T01:21:22.558Z,8.08
2019-05-03T01:23:52.578Z,7.96
2019-05-03T01:26:22.676Z,7.80
2019-05-03T01:28:52.141Z,7.78
2019-05-03T01:31:22.657Z,7.70
2019-05-03T01:33:51.619Z,7.62
2019-05-03T01:36:22.702Z,7.56
2019-05-03T01:38:52.809Z,7.56
2019-05-03T01:41:21.686Z,7.48
2019-05-03T01:43:50.010Z,7.50
2019-05-03T01:46:18.386Z,7.51
2019-05-03T01:48:57.018Z,7.50
2019-05-03T01:51:26.956Z,7.51
2019-05-03T01:53:55.212Z,7.47
2019-05-03T01:56:23.542Z,7.47
2019-05-03T01:58:52.391Z,7.50
2019-05-03T02:01:22.618Z,7.51
2019-05-03T02:04:12.265Z,7.45
2019-05-03T02:06:42.451Z,7.42
2019-05-03T02:09:12.199Z,7.39
2019-05-03T02:11:42.143Z,7.45
2019-05-03T02:14:12.385Z,7.45
2019-05-03T02:16:41.994Z,7.44
2019-05-03T02:19:12.495Z,7.46
2019-05-03T02:21:41.650Z,7.46
2019-05-03T02:24:11.861Z,7.50
2019-05-03T02:26:42.335Z,7.55
2019-05-03T02:29:12.440Z,7.46
2019-05-03T02:31:43.333Z,7.41
2019-05-03T02:34:12.535Z,7.38
2019-05-03T02:36:42.891Z,7.39
2019-05-03T02:39:13.599Z,7.40
2019-05-03T02:41:42.060Z,7.37
2019-05-03T02:44:10.977Z,7.41
2019-05-03T02:46:40.911Z,7.33
2019-05-03T02:49:19.601Z,7.28
2019-05-03T02:51:47.902Z,7.27
2019-05-03T02:54:16.174Z,7.30
2019-05-03T02:56:46.077Z,7.28
2019-05-03T02:59:15.839Z,7.27
2019-05-03T03:01:46.499Z,7.26
2019-05-03T03:04:15.686Z,7.20
2019-05-03T03:06:45.450Z,7.12
2019-05-03T03:09:16.422Z,7.18
2019-05-03T03:11:45.772Z,7.13
2019-05-03T03:14:16.646Z,7.18
2019-05-03T03:16:45.625Z,7.13
2019-05-03T03:19:15.969Z,7.14
2019-05-03T03:21:46.796Z,7.10
2019-05-03T03:24:18.352Z,7.10
2019-05-03T03:26:47.401Z,7.14
2019-05-03T03:29:17.535Z,7.12
2019-05-03T03:31:51.840Z,7.10
2019-05-03T03:34:27.549Z,7.09
2019-05-03T03:37:00.770Z,7.03
2019-05-03T03:39:26.048Z,7.00
2019-05-03T03:41:55.787Z,7.02
2019-05-03T03:44:25.724Z,6.99
2019-05-03T03:46:56.165Z,6.95
2019-05-03T03:49:26.250Z,6.94
2019-05-03T03:51:56.324Z,6.89
2019-05-03T03:54:26.055Z,6.92
2019-05-03T03:57:03.291Z,6.98
2019-05-03T03:59:26.558Z,6.97
2019-05-03T04:01:55.305Z,6.95
2019-05-03T04:04:26.107Z,6.98
2019-05-03T04:06:58.478Z,6.94
2019-05-03T04:09:25.562Z,6.98
2019-05-03T04:11:56.760Z,6.96
2019-05-03T04:14:26.011Z,7.03
2019-05-03T04:17:05.872Z,7.00
2019-05-03T04:19:38.618Z,6.95
2019-05-03T04:22:07.055Z,7.04
2019-05-03T04:24:35.565Z,6.96
2019-05-03T04:27:18.563Z,6.92
2019-05-03T04:29:37.879Z,6.85
2019-05-03T04:32:06.983Z,6.91
2019-05-03T04:34:35.835Z,6.86
2019-05-03T04:37:05.577Z,6.85
2019-05-03T04:39:35.948Z,6.91
2019-05-03T04:42:06.738Z,6.94
2019-05-03T04:44:35.801Z,6.97
2019-05-03T04:47:06.838Z,7.05
2019-05-03T04:49:36.196Z,7.00
2019-05-03T04:52:05.783Z,6.96
2019-05-03T04:54:39.160Z,6.91
2019-05-03T04:57:07.526Z,7.05
2019-05-03T04:59:35.991Z,6.98
2019-05-03T05:02:06.109Z,6.92
2019-05-03T05:04:35.710Z,6.95
2019-05-03T05:07:06.212Z,6.91
2019-05-03T05:09:34.901Z,6.92
2019-05-03T05:12:05.668Z,6.95
2019-05-03T05:14:35.206Z,6.96
2019-05-03T05:17:06.183Z,6.95
2019-05-03T05:19:35.804Z,7.02
2019-05-03T05:22:06.016Z,7.07
2019-05-03T05:24:34.704Z,6.98
2019-05-03T05:27:07.504Z,7.01
2019-05-03T05:29:37.422Z,7.07
2019-05-03T05:32:05.652Z,7.07
2019-05-03T05:34:34.907Z,7.07
2019-05-03T05:37:05.285Z,7.16
2019-05-03T05:39:35.451Z,7.30
2019-05-03T05:42:04.548Z,7.17
2019-05-03T05:44:35.101Z,7.10
2019-05-03T05:47:07.455Z,7.19
2019-05-03T05:49:46.438Z,7.09
2019-05-03T05:52:15.461Z,7.22
2019-05-03T05:54:46.001Z,7.21
2019-05-03T05:57:25.651Z,7.27
2019-05-03T06:00:12.160Z,7.45
2019-05-03T06:02:40.378Z,7.84
2019-05-03T06:05:08.648Z,7.88
2019-05-03T06:07:38.541Z,7.77
2019-05-03T06:10:16.552Z,7.75
2019-05-03T06:12:48.967Z,7.70
2019-05-03T06:15:34.702Z,7.69
2019-05-03T06:18:19.693Z,7.83
2019-05-03T06:20:49.589Z,7.79
2019-05-03T06:23:19.473Z,7.74
2019-05-03T06:25:47.768Z,7.79
2019-05-03T06:28:20.802Z,7.81
2019-05-03T06:30:55.044Z,7.67
2019-05-03T06:33:24.522Z,7.63
2019-05-03T06:35:54.602Z,7.60
2019-05-03T06:38:24.385Z,7.54
2019-05-03T06:40:54.437Z,7.63
2019-05-03T06:43:24.511Z,7.65
2019-05-03T06:45:54.666Z,7.62
2019-05-03T06:48:28.006Z,7.63
2019-05-03T06:50:52.847Z,7.63
2019-05-03T06:53:21.071Z,7.68
2019-05-03T06:55:49.297Z,7.86
2019-05-03T06:58:30.547Z,8.01
2019-05-03T07:01:01.080Z,8.05
2019-05-03T07:03:40.144Z,7.83
2019-05-03T07:06:33.266Z,7.96
2019-05-03T07:08:54.943Z,8.05
2019-05-03T07:11:24.751Z,8.14
2019-05-03T07:13:55.025Z,8.46
2019-05-03T07:16:25.126Z,8.48
2019-05-03T07:18:56.496Z,8.37
2019-05-03T07:21:24.746Z,8.25
2019-05-03T07:23:55.019Z,8.18
2019-05-03T07:26:25.229Z,7.95
2019-05-03T07:28:54.530Z,7.76
2019-05-03T07:31:25.347Z,7.83
2019-05-03T07:33:55.060Z,8.02
2019-05-03T07:36:25.954Z,8.00
2019-05-03T07:38:55.401Z,8.33
2019-05-03T07:41:26.894Z,8.47
2019-05-03T07:43:54.891Z,8.67
2019-05-03T07:46:24.775Z,8.49
2019-05-03T07:48:54.836Z,8.33
2019-05-03T07:51:24.971Z,8.22
2019-05-03T07:53:55.377Z,8.09
2019-05-03T07:56:25.478Z,8.00
2019-05-03T07:59:00.581Z,7.99
2019-05-03T08:01:29.171Z,7.88
2019-05-03T08:03:57.745Z,7.85
2019-05-03T08:06:25.977Z,7.90
2019-05-03T08:08:54.617Z,7.87
2019-05-03T08:11:24.842Z,7.88
2019-05-03T08:13:55.001Z,7.88
2019-05-03T08:16:25.108Z,7.93
2019-05-03T08:18:55.609Z,7.93
2019-05-03T08:21:25.287Z,8.00
2019-05-03T08:23:55.477Z,8.58
2019-05-03T08:26:25.076Z,9.13
2019-05-03T08:28:54.522Z,9.02
2019-05-03T08:31:36.500Z,8.66
2019-05-03T08:34:06.384Z,8.45
2019-05-03T08:36:36.306Z,8.36
2019-05-03T08:39:05.763Z,8.32
2019-05-03T08:41:35.676Z,8.31
2019-05-03T08:44:05.194Z,8.42
2019-05-03T08:46:35.462Z,9.13
2019-05-03T08:49:05.235Z,9.86
2019-05-03T08:51:35.238Z,9.56
2019-05-03T08:54:04.743Z,9.25
2019-05-03T08:56:34.888Z,8.92
2019-05-03T08:59:04.672Z,8.71
2019-05-03T09:01:35.720Z,8.54
2019-05-03T09:04:04.955Z,8.55
2019-05-03T09:06:35.358Z,8.64
2019-05-03T09:09:04.902Z,9.13
2019-05-03T09:11:34.806Z,9.64
2019-05-03T09:14:04.792Z,10.42
2019-05-03T09:16:33.017Z,10.88
2019-05-03T09:19:01.525Z,10.80
2019-05-03T09:21:29.753Z,10.47
2019-05-03T09:23:57.991Z,10.17
2019-05-03T09:26:29.078Z,9.95
2019-05-03T09:28:56.267Z,10.18
2019-05-03T09:31:24.888Z,10.16
2019-05-03T09:33:54.786Z,10.01
2019-05-03T09:36:25.104Z,10.15
2019-05-03T09:38:54.990Z,10.16
2019-05-03T09:41:25.336Z,10.21
2019-05-03T09:43:55.250Z,10.23
2019-05-03T09:46:24.290Z,10.09
2019-05-03T09:48:58.501Z,9.89
2019-05-03T09:51:23.083Z,9.68
2019-05-03T09:53:55.945Z,9.81
2019-05-03T09:56:53.436Z,10.30
2019-05-03T09:59:11.938Z,10.42
2019-05-03T10:01:40.230Z,10.73
2019-05-03T10:04:08.462Z,10.70
2019-05-03T10:06:36.705Z,10.64
2019-05-03T10:09:05.977Z,10.51
2019-05-03T10:11:35.110Z,10.30
2019-05-03T10:14:04.699Z,10.28
2019-05-03T10:16:35.137Z,10.08
2019-05-03T10:19:03.507Z,9.98
2019-05-03T10:21:35.425Z,9.64
2019-05-03T10:24:05.570Z,9.43
2019-05-03T10:26:35.474Z,9.46
2019-05-03T10:29:05.277Z,9.51
2019-05-03T10:31:35.488Z,10.11
2019-05-03T10:34:05.738Z,9.86
2019-05-03T10:36:35.670Z,9.72
2019-05-03T10:39:05.206Z,9.49
2019-05-03T10:41:34.803Z,9.38
2019-05-03T10:44:03.145Z,9.27
2019-05-03T10:46:31.537Z,9.21
2019-05-03T10:48:59.771Z,9.18
2019-05-03T10:51:29.697Z,9.11
2019-05-03T10:53:59.574Z,9.12
2019-05-03T10:56:31.905Z,9.19
2019-05-03T10:59:01.787Z,9.29
2019-05-03T11:01:45.260Z,9.67
2019-05-03T11:04:14.778Z,9.73
2019-05-03T11:06:45.470Z,9.60
2019-05-03T11:09:15.239Z,9.61
2019-05-03T11:11:45.232Z,9.76
2019-05-03T11:14:14.967Z,9.81
2019-05-03T11:16:43.040Z,9.90
2019-05-03T11:19:11.316Z,9.88
2019-05-03T11:21:39.552Z,9.95
2019-05-03T11:24:07.828Z,10.11
2019-05-03T11:26:36.656Z,10.12
2019-05-03T11:29:05.319Z,10.05
2019-05-03T11:31:50.337Z,9.95
2019-05-03T11:34:36.116Z,9.96
2019-05-03T11:37:20.824Z,10.08
2019-05-03T11:39:49.938Z,10.29
2019-05-03T11:42:18.621Z,10.23
2019-05-03T11:44:48.224Z,10.15
2019-05-03T11:47:16.466Z,10.32
2019-05-03T11:49:45.437Z,10.70
2019-05-03T11:52:15.916Z,11.07
2019-05-03T11:54:45.267Z,10.92
2019-05-03T11:57:27.425Z,11.01
2019-05-03T11:59:55.776Z,10.95
2019-05-03T12:02:28.959Z,10.70
2019-05-03T12:04:58.940Z,10.43
2019-05-03T12:07:39.340Z,10.45
2019-05-03T12:10:13.755Z,10.32
2019-05-03T12:12:37.623Z,10.47
2019-05-03T12:15:07.505Z,10.67
2019-05-03T12:17:50.942Z,10.54
2019-05-03T12:20:11.390Z,10.90
2019-05-03T12:22:40.627Z,11.05
2019-05-03T12:25:10.644Z,11.23
2019-05-03T12:27:39.576Z,11.20
2019-05-03T12:30:07.799Z,11.10
2019-05-03T12:32:36.083Z,11.07
2019-05-03T12:35:06.162Z,10.82
2019-05-03T12:37:35.322Z,10.63
2019-05-03T12:40:07.417Z,10.40
2019-05-03T12:42:35.710Z,10.56
2019-05-03T12:45:04.697Z,10.39
2019-05-03T12:47:34.692Z,10.25
2019-05-03T12:50:05.314Z,10.11
2019-05-03T12:52:36.654Z,9.95
2019-05-03T12:55:06.015Z,9.86
2019-05-03T12:57:34.514Z,9.78
2019-05-03T13:00:07.753Z,9.85
2019-05-03T13:02:37.667Z,9.96
2019-05-03T13:05:06.082Z,9.90
2019-05-03T13:07:38.904Z,9.94
2019-05-03T13:10:07.367Z,9.92
2019-05-03T13:12:49.140Z,9.96
2019-05-03T13:15:09.033Z,9.92
2019-05-03T13:17:38.089Z,9.85
2019-05-03T13:20:09.587Z,9.81
2019-05-03T13:22:37.805Z,9.73
2019-05-03T13:25:07.798Z,9.88
2019-05-03T13:27:36.047Z,9.87
2019-05-03T13:30:06.766Z,9.87
2019-05-03T13:32:35.059Z,9.89
2019-05-03T13:35:05.768Z,9.92
2019-05-03T13:37:35.758Z,9.94
2019-05-03T13:40:07.413Z,9.99
2019-05-03T13:42:35.643Z,9.92
2019-05-03T13:45:09.863Z,10.08
2019-05-03T13:47:38.105Z,10.19
2019-05-03T13:50:07.259Z,10.21
2019-05-03T13:52:35.481Z,10.39
2019-05-03T13:55:05.391Z,10.72
2019-05-03T13:57:35.364Z,10.68
2019-05-03T14:00:06.320Z,10.63
2019-05-03T14:03:04.495Z,10.51
2019-05-03T14:05:10.489Z,10.43
2019-05-03T14:07:38.721Z,10.53
2019-05-03T14:10:07.034Z,10.40
2019-05-03T14:12:35.323Z,10.26
2019-05-03T14:15:05.675Z,10.18
2019-05-03T14:17:34.168Z,10.22
2019-05-03T14:20:09.574Z,10.29
2019-05-03T14:22:39.489Z,10.33
2019-05-03T14:25:07.723Z,10.32
2019-05-03T14:27:36.026Z,10.50
2019-05-03T14:30:07.534Z,10.58
2019-05-03T14:32:36.070Z,10.47
2019-05-03T14:35:06.730Z,10.48
2019-05-03T14:37:37.816Z,10.47
2019-05-03T14:40:07.059Z,10.49
2019-05-03T14:42:35.356Z,10.48
2019-05-03T14:45:05.043Z,10.48
2019-05-03T14:47:33.284Z,10.43
2019-05-03T14:50:02.575Z,10.47
2019-05-03T14:52:30.810Z,10.43
2019-05-03T14:55:00.726Z,10.52
2019-05-03T14:57:30.608Z,10.61
2019-05-03T15:00:17.465Z,10.58
2019-05-03T15:02:50.961Z,10.57
2019-05-03T15:05:17.565Z,10.86
2019-05-03T15:07:46.035Z,10.68
2019-05-03T15:10:15.017Z,10.52
2019-05-03T15:12:45.230Z,10.53
2019-05-03T15:15:14.642Z,10.51
2019-05-03T15:17:43.191Z,10.49
2019-05-03T15:20:11.455Z,10.54
2019-05-03T15:22:39.683Z,10.53
2019-05-03T15:25:07.924Z,10.54
2019-05-03T15:27:36.201Z,10.46
2019-05-03T15:30:08.323Z,10.29
2019-05-03T15:32:36.000Z,10.32
2019-05-03T15:35:08.470Z,10.36
2019-05-03T15:37:36.751Z,10.48
2019-05-03T15:40:08.769Z,10.50
2019-05-03T15:42:38.685Z,10.37
2019-05-03T15:45:11.105Z,10.25
2019-05-03T15:47:41.037Z,10.19
2019-05-03T15:50:09.337Z,10.16
2019-05-03T15:52:37.615Z,10.13
2019-05-03T15:55:08.773Z,10.04
2019-05-03T15:57:37.072Z,10.00
2019-05-03T16:00:08.118Z,9.93
2019-05-03T16:02:36.416Z,10.01
2019-05-03T16:05:05.716Z,9.98
2019-05-03T16:07:35.549Z,10.14
2019-05-03T16:10:05.054Z,10.36
2019-05-03T16:12:34.457Z,10.58
2019-05-03T16:15:04.697Z,10.55
2019-05-03T16:17:33.158Z,10.45
2019-05-03T16:20:01.404Z,10.38
2019-05-03T16:22:29.688Z,10.32
2019-05-03T16:24:57.919Z,10.20
2019-05-03T16:27:30.617Z,10.14
2019-05-03T16:29:59.324Z,10.21
2019-05-03T16:32:27.588Z,10.32
2019-05-03T16:34:55.815Z,10.31
2019-05-03T16:37:25.500Z,10.16
2019-05-03T16:39:55.052Z,10.17
2019-05-03T16:42:24.589Z,10.05
2019-05-03T16:44:54.871Z,10.01
2019-05-03T16:47:24.834Z,9.96
2019-05-03T16:49:53.080Z,9.97
2019-05-03T16:52:21.313Z,9.91
2019-05-03T16:54:49.594Z,9.87
2019-05-03T16:57:17.828Z,9.84
2019-05-03T16:59:46.097Z,9.85
2019-05-03T17:02:14.707Z,9.83
2019-05-03T17:04:51.588Z,9.86
2019-05-03T17:07:30.349Z,9.85
2019-05-03T17:10:00.279Z,9.88
2019-05-03T17:12:36.176Z,9.81
2019-05-03T17:15:07.668Z,9.77
2019-05-03T17:17:35.893Z,9.76
2019-05-03T17:20:07.381Z,9.77
2019-05-03T17:22:35.673Z,9.78
2019-05-03T17:25:06.629Z,9.70
2019-05-03T17:27:35.102Z,9.67
2019-05-03T17:30:05.277Z,9.65
2019-05-03T17:32:35.104Z,9.65
2019-05-03T17:35:05.411Z,9.65
2019-05-03T17:37:34.668Z,9.63
2019-05-03T17:40:07.718Z,9.64
2019-05-03T17:42:55.646Z,9.57
2019-05-03T17:45:25.523Z,9.57
2019-05-03T17:47:54.849Z,9.57
2019-05-03T17:50:23.318Z,9.49
2019-05-03T17:52:54.563Z,9.49
2019-05-03T17:55:35.204Z,9.51
2019-05-03T17:58:11.138Z,9.50
2019-05-03T18:00:57.127Z,9.45
2019-05-03T18:03:27.062Z,9.43
2019-05-03T18:06:05.620Z,9.44
2019-05-03T18:08:38.237Z,9.41
2019-05-03T18:11:10.889Z,9.40
2019-05-03T18:13:39.121Z,9.40
2019-05-03T18:16:07.404Z,9.38
2019-05-03T18:18:35.633Z,9.38
2019-05-03T18:21:04.764Z,9.34
2019-05-03T18:23:35.024Z,9.31
2019-05-03T18:26:05.151Z,9.33
2019-05-03T18:28:35.374Z,9.31
2019-05-03T18:31:05.177Z,9.26
2019-05-03T18:33:33.441Z,9.23
2019-05-03T18:36:01.721Z,9.28
2019-05-03T18:38:31.646Z,9.25
2019-05-03T18:40:59.878Z,9.24
2019-05-03T18:43:29.807Z,9.21
2019-05-03T18:45:59.706Z,9.21
2019-05-03T18:48:27.990Z,9.16
2019-05-03T18:50:56.226Z,9.17
2019-05-03T18:53:25.200Z,9.16
2019-05-03T18:55:55.185Z,9.12
2019-05-03T18:58:24.424Z,9.09
2019-05-03T19:00:54.759Z,9.04
2019-05-03T19:03:25.002Z,8.99
2019-05-03T19:05:54.780Z,8.94
2019-05-03T19:08:42.395Z,8.92
2019-05-03T19:11:12.340Z,8.86
2019-05-03T19:13:44.894Z,8.83
2019-05-03T19:16:15.006Z,8.79
2019-05-03T19:18:45.323Z,8.72
2019-05-03T19:21:15.005Z,8.67
2019-05-03T19:23:44.813Z,8.66
2019-05-03T19:26:14.434Z,8.66
2019-05-03T19:28:44.463Z,8.67
2019-05-03T19:31:12.856Z,8.59
2019-05-03T19:33:41.093Z,8.57
2019-05-03T19:36:09.399Z,8.59
2019-05-03T19:38:37.637Z,8.59
2019-05-03T19:41:05.951Z,8.54
2019-05-03T19:43:35.563Z,8.54
2019-05-03T19:46:04.570Z,8.55
2019-05-03T19:48:34.864Z,8.54
2019-05-03T19:51:05.797Z,8.57
2019-05-03T19:53:35.945Z,8.56
2019-05-03T19:56:05.561Z,8.56
2019-05-03T19:58:35.345Z,8.53
2019-05-03T20:01:24.922Z,8.52
2019-05-03T20:04:10.560Z,8.56
2019-05-03T20:06:52.398Z,8.58
2019-05-03T20:09:24.752Z,8.58
2019-05-03T20:11:55.113Z,8.54
2019-05-03T20:14:22.979Z,8.49
2019-05-03T20:16:51.219Z,8.54
2019-05-03T20:19:21.487Z,8.50
2019-05-03T20:21:50.054Z,8.48
2019-05-03T20:24:18.305Z,8.48
2019-05-03T20:26:46.538Z,8.43
2019-05-03T20:29:14.882Z,8.39
2019-05-03T20:31:44.702Z,8.35
2019-05-03T20:34:13.221Z,8.36
2019-05-03T20:36:41.476Z,8.33
2019-05-03T20:39:09.759Z,8.31
2019-05-03T20:41:38.029Z,8.23
2019-05-03T20:44:24.741Z,8.26
2019-05-03T20:47:09.962Z,8.27
2019-05-03T20:49:38.227Z,8.23
2019-05-03T20:52:06.450Z,8.25
2019-05-03T20:54:35.075Z,8.24
2019-05-03T20:57:05.300Z,8.25
2019-05-03T20:59:42.894Z,8.22
2019-05-03T21:02:03.564Z,8.22
2019-05-03T21:04:31.847Z,8.23
2019-05-03T21:07:00.107Z,8.14
2019-05-03T21:09:28.375Z,8.12
2019-05-03T21:11:56.611Z,8.11
2019-05-03T21:14:24.873Z,8.13
2019-05-03T21:16:54.741Z,8.12
2019-05-03T21:19:36.853Z,8.09
2019-05-03T21:22:09.961Z,8.04
2019-05-03T21:24:39.843Z,8.08
2019-05-03T21:27:08.123Z,8.02
2019-05-03T21:29:38.015Z,7.99
2019-05-03T21:32:06.283Z,7.96
2019-05-03T21:34:34.713Z,7.94
2019-05-03T21:37:02.975Z,7.87
2019-05-03T21:39:31.211Z,7.88
2019-05-03T21:41:59.499Z,7.88
2019-05-03T21:44:31.412Z,7.84
2019-05-03T21:47:01.335Z,7.84
2019-05-03T21:49:46.241Z,7.86
2019-05-03T21:52:14.748Z,7.83
2019-05-03T21:54:44.940Z,7.84
2019-05-03T21:57:14.246Z,7.84
2019-05-03T21:59:44.682Z,7.83
2019-05-03T22:02:15.287Z,7.90
2019-05-03T22:04:44.455Z,7.90
2019-05-03T22:07:12.838Z,7.82
2019-05-03T22:09:41.126Z,7.86
2019-05-03T22:12:09.354Z,7.84
2019-05-03T22:14:39.268Z,7.81
2019-05-03T22:17:25.356Z,7.81
2019-05-03T22:19:55.332Z,7.80
2019-05-03T22:22:30.686Z,7.78
2019-05-03T22:25:00.621Z,7.81
2019-05-03T22:27:30.502Z,7.82
2019-05-03T22:29:58.781Z,7.85
2019-05-03T22:32:27.240Z,7.82
2019-05-03T22:34:55.514Z,7.82
2019-05-03T22:37:25.191Z,7.81
2019-05-03T22:39:55.034Z,7.76
2019-05-03T22:42:25.179Z,7.77
2019-05-03T22:44:55.220Z,7.69
2019-05-03T22:47:25.178Z,7.66
2019-05-03T22:49:54.772Z,7.58
2019-05-03T22:52:23.320Z,7.55
2019-05-03T22:54:51.557Z,7.48
2019-05-03T22:57:19.827Z,7.41
2019-05-03T22:59:48.050Z,7.30
2019-05-03T23:02:17.227Z,7.29
2019-05-03T23:04:45.563Z,7.23
2019-05-03T23:07:14.866Z,7.15
2019-05-03T23:09:44.667Z,7.12
2019-05-03T23:12:13.142Z,7.11
2019-05-03T23:14:41.362Z,7.08
2019-05-03T23:17:09.637Z,7.12
2019-05-03T23:19:39.515Z,7.09
2019-05-03T23:22:09.403Z,7.07
2019-05-03T23:24:37.682Z,7.04
2019-05-03T23:27:05.914Z,7.03
2019-05-03T23:29:34.930Z,7.05
2019-05-03T23:32:04.659Z,7.06
2019-05-03T23:34:35.158Z,7.01
2019-05-03T23:37:05.238Z,7.02
2019-05-03T23:39:33.100Z,6.99
2019-05-03T23:42:01.340Z,6.97
2019-05-03T23:44:29.616Z,6.96
2019-05-03T23:47:15.632Z,6.92
2019-05-03T23:49:44.627Z,6.98
2019-05-03T23:52:26.810Z,6.88
2019-05-03T23:54:56.786Z,6.90
2019-05-03T23:57:25.197Z,6.71
2019-05-03T23:59:55.002Z,6.61
